Terminal Aerodrome Forecast
Issued by NWS

Home | Current Version | Previous Version | Graphics & Text | Print | Product List | Glossary On
Versions: 1 2 3 4 5 6 7 8 9 10 11 12
000
FTUS42 KMHX 211700
TAFPGV
TAF
KPGV 211735Z 2118/2218 02010KT P6SM FEW035
     FM212000 03004KT P6SM SKC
     FM220900 00000KT 5SM BR SCT150
     FM221100 23006KT P6SM BKN150
      AMD LTD TO CLD VIS AND WIND=

USA.gov is the U.S. government's official web portal to all federal, state and local government web resources and services.